createdAt,value
2022-09-03T00:02:28.424Z,100335.19
2022-09-03T00:06:02.669Z,100327.22
2022-09-03T00:09:11.138Z,100334.38
2022-09-03T00:12:32.928Z,100347.53
2022-09-03T00:15:39.912Z,100349.50
2022-09-03T00:18:51.172Z,100334.81
2022-09-03T00:22:03.623Z,100343.97
2022-09-03T00:25:14.575Z,100339.16
2022-09-03T00:28:34.250Z,100334.72
2022-09-03T00:31:58.916Z,100339.13
2022-09-03T00:35:04.884Z,100322.78
2022-09-03T00:38:09.623Z,100325.97
2022-09-03T00:41:33.993Z,100332.28
2022-09-03T00:44:48.538Z,100339.53
2022-09-03T00:48:14.168Z,100345.50
2022-09-03T00:51:52.948Z,100341.56
2022-09-03T00:54:58.832Z,100336.78
2022-09-03T00:58:21.391Z,100344.31
2022-09-03T01:01:48.164Z,100350.66
2022-09-03T01:05:36.601Z,100343.44
2022-09-03T01:09:16.816Z,100342.22
2022-09-03T01:12:33.726Z,100349.50
2022-09-03T01:15:42.055Z,100345.03
2022-09-03T01:19:27.877Z,100344.59
2022-09-03T01:22:52.238Z,100344.16
2022-09-03T01:26:16.820Z,100343.72
2022-09-03T01:29:28.661Z,100340.53
2022-09-03T01:32:37.385Z,100344.47
2022-09-03T01:36:16.064Z,100342.06
2022-09-03T01:39:51.632Z,100347.34
2022-09-03T01:43:06.570Z,100345.00
2022-09-03T01:46:17.010Z,100353.03
2022-09-03T01:49:27.835Z,100349.78
2022-09-03T01:52:52.455Z,100343.88
2022-09-03T01:56:26.077Z,100342.22
2022-09-03T01:59:48.536Z,100342.16
2022-09-03T02:02:52.897Z,100348.47
2022-09-03T02:05:56.008Z,100350.50
2022-09-03T02:08:59.828Z,100352.09
2022-09-03T02:12:16.780Z,100351.34
2022-09-03T02:15:23.376Z,100350.13
2022-09-03T02:18:31.880Z,100342.78
2022-09-03T02:21:37.272Z,100345.19
2022-09-03T02:24:42.436Z,100348.69
2022-09-03T02:27:46.487Z,100345.84
2022-09-03T02:30:49.774Z,100347.84
2022-09-03T02:33:53.600Z,100350.59
2022-09-03T02:36:56.705Z,100348.66
2022-09-03T02:39:59.503Z,100350.06
2022-09-03T02:43:05.463Z,100357.12
2022-09-03T02:46:21.690Z,100354.47
2022-09-03T02:49:24.771Z,100343.22
2022-09-03T02:52:27.521Z,100346.41
2022-09-03T02:55:30.642Z,100352.63
2022-09-03T02:58:33.448Z,100355.63
2022-09-03T03:01:36.989Z,100356.81
2022-09-03T03:04:40.553Z,100354.41
2022-09-03T03:07:43.474Z,100365.78
2022-09-03T03:10:48.036Z,100359.72
2022-09-03T03:13:52.629Z,100362.16
2022-09-03T03:16:55.473Z,100371.12
2022-09-03T03:19:58.480Z,100365.53
2022-09-03T03:23:05.785Z,100368.50
2022-09-03T03:26:12.358Z,100374.00
2022-09-03T03:29:20.161Z,100364.47
2022-09-03T03:32:27.000Z,100367.69
2022-09-03T03:35:29.634Z,100366.16
2022-09-03T03:38:33.089Z,100376.44
2022-09-03T03:41:36.912Z,100368.06
2022-09-03T03:44:39.976Z,100371.12
2022-09-03T03:47:42.673Z,100372.78
2022-09-03T03:50:45.632Z,100380.06
2022-09-03T03:53:48.575Z,100389.34
2022-09-03T03:56:55.439Z,100388.44
2022-09-03T03:59:58.601Z,100403.09
2022-09-03T04:03:01.815Z,100403.00
2022-09-03T04:06:06.297Z,100396.16
2022-09-03T04:09:09.621Z,100403.31
2022-09-03T04:12:12.644Z,100392.75
2022-09-03T04:15:15.543Z,100400.25
2022-09-03T04:18:18.528Z,100391.53
2022-09-03T04:21:23.666Z,100398.56
2022-09-03T04:24:27.691Z,100391.50
2022-09-03T04:27:30.533Z,100402.53
2022-09-03T04:30:33.697Z,100410.47
2022-09-03T04:33:40.352Z,100411.22
2022-09-03T04:36:43.292Z,100415.12
2022-09-03T04:39:46.422Z,100413.53
2022-09-03T04:42:49.527Z,100416.28
2022-09-03T04:45:52.260Z,100417.88
2022-09-03T04:48:58.560Z,100412.69
2022-09-03T04:52:01.651Z,100420.28
2022-09-03T04:55:05.155Z,100412.03
2022-09-03T04:58:08.744Z,100412.19
2022-09-03T05:01:18.463Z,100415.31
2022-09-03T05:04:21.172Z,100418.03
2022-09-03T05:07:24.210Z,100416.09
2022-09-03T05:10:26.934Z,100424.56
2022-09-03T05:13:30.027Z,100421.00
2022-09-03T05:16:32.855Z,100423.00
2022-09-03T05:19:35.935Z,100410.91
2022-09-03T05:22:38.695Z,100411.62
2022-09-03T05:25:42.697Z,100410.66
2022-09-03T05:28:46.573Z,100412.44
2022-09-03T05:31:49.682Z,100412.72
2022-09-03T05:34:52.737Z,100415.94
2022-09-03T05:37:56.342Z,100419.19
2022-09-03T05:41:01.907Z,100418.59
2022-09-03T05:44:06.298Z,100428.00
2022-09-03T05:47:08.991Z,100419.59
2022-09-03T05:50:12.632Z,100429.19
2022-09-03T05:53:15.735Z,100422.34
2022-09-03T05:56:23.774Z,100419.94
2022-09-03T05:59:26.563Z,100414.75
2022-09-03T06:02:29.661Z,100418.72
2022-09-03T06:05:32.619Z,100415.56
2022-09-03T06:08:42.327Z,100409.50
2022-09-03T06:11:46.979Z,100416.22
2022-09-03T06:14:49.840Z,100419.28
2022-09-03T06:17:52.851Z,100428.38
2022-09-03T06:21:00.695Z,100419.09
2022-09-03T06:24:04.062Z,100414.28
2022-09-03T06:27:06.735Z,100415.81
2022-09-03T06:30:10.330Z,100405.75
2022-09-03T06:33:13.031Z,100408.06
2022-09-03T06:36:18.942Z,100400.72
2022-09-03T06:39:21.851Z,100397.03
2022-09-03T06:42:27.371Z,100388.88
2022-09-03T06:45:32.521Z,100387.62
2022-09-03T06:48:37.146Z,100389.13
2022-09-03T06:51:40.210Z,100393.78
2022-09-03T06:54:43.134Z,100390.31
2022-09-03T06:57:45.825Z,100382.06
2022-09-03T07:00:50.236Z,100383.53
2022-09-03T07:03:58.639Z,100387.62
2022-09-03T07:07:02.533Z,100384.31
2022-09-03T07:10:06.292Z,100382.44
2022-09-03T07:13:09.368Z,100382.84
2022-09-03T07:16:15.471Z,100379.37
2022-09-03T07:19:18.679Z,100381.00
2022-09-03T07:22:21.386Z,100376.94
2022-09-03T07:25:29.129Z,100369.81
2022-09-03T07:28:32.833Z,100372.50
2022-09-03T07:31:39.364Z,100371.19
2022-09-03T07:34:42.059Z,100378.75
2022-09-03T07:37:44.974Z,100379.91
2022-09-03T07:40:47.974Z,100385.34
2022-09-03T07:43:51.160Z,100386.72
2022-09-03T07:46:53.959Z,100392.44
2022-09-03T07:49:58.205Z,100383.41
2022-09-03T07:53:01.653Z,100379.97
2022-09-03T07:56:08.621Z,100377.13
2022-09-03T07:59:12.314Z,100395.59
2022-09-03T08:02:16.396Z,100377.75
2022-09-03T08:05:21.402Z,100379.34
2022-09-03T08:08:24.036Z,100377.00
2022-09-03T08:11:29.673Z,100376.37
2022-09-03T08:14:32.521Z,100376.53
2022-09-03T08:17:35.516Z,100376.69
2022-09-03T08:20:40.056Z,100376.78
2022-09-03T08:23:52.659Z,100378.22
2022-09-03T08:26:55.461Z,100383.22
2022-09-03T08:29:58.394Z,100384.56
2022-09-03T08:33:05.068Z,100385.53
2022-09-03T08:36:14.204Z,100383.50
2022-09-03T08:39:20.349Z,100381.41
2022-09-03T08:42:37.300Z,100381.25
2022-09-03T08:45:40.167Z,100379.91
2022-09-03T08:48:43.250Z,100375.03
2022-09-03T08:51:49.341Z,100371.97
2022-09-03T08:54:58.530Z,100370.94
2022-09-03T08:58:15.197Z,100361.91
2022-09-03T09:01:27.253Z,100357.41
2022-09-03T09:04:56.396Z,100353.78
2022-09-03T09:08:09.183Z,100365.38
2022-09-03T09:11:21.281Z,100368.12
2022-09-03T09:14:35.273Z,100357.12
2022-09-03T09:18:05.902Z,100345.72
2022-09-03T09:21:20.955Z,100355.37
2022-09-03T09:24:27.649Z,100353.94
2022-09-03T09:27:30.971Z,100354.88
2022-09-03T09:30:33.748Z,100356.97
2022-09-03T09:33:37.112Z,100354.28
2022-09-03T09:36:52.300Z,100346.06
2022-09-03T09:39:58.538Z,100352.59
2022-09-03T09:43:30.453Z,100351.81
2022-09-03T09:46:38.979Z,100344.81
2022-09-03T09:50:02.790Z,100342.31
2022-09-03T09:53:21.885Z,100333.59
2022-09-03T09:56:27.719Z,100341.78
2022-09-03T09:59:31.520Z,100343.09
2022-09-03T10:02:40.655Z,100339.06
2022-09-03T10:05:44.691Z,100339.72
2022-09-03T10:08:48.764Z,100330.81
2022-09-03T10:12:03.075Z,100338.75
2022-09-03T10:15:19.608Z,100346.25
2022-09-03T10:18:31.788Z,100341.19
2022-09-03T10:21:50.146Z,100338.03
2022-09-03T10:24:57.709Z,100338.06
2022-09-03T10:28:01.660Z,100331.69
2022-09-03T10:31:31.002Z,100336.00
2022-09-03T10:35:36.001Z,100337.00
2022-09-03T10:38:42.480Z,100341.94
2022-09-03T10:42:22.084Z,100333.31
2022-09-03T10:45:47.459Z,100327.97
2022-09-03T10:49:11.556Z,100327.47
2022-09-03T10:52:39.104Z,100321.09
2022-09-03T10:55:51.228Z,100312.50
2022-09-03T10:59:20.057Z,100309.19
2022-09-03T11:03:00.554Z,100307.84
2022-09-03T11:06:15.571Z,100314.06
2022-09-03T11:09:30.514Z,100324.28
2022-09-03T11:12:40.581Z,100325.03
2022-09-03T11:15:52.500Z,100320.16
2022-09-03T11:19:06.176Z,100317.22
2022-09-03T11:22:12.939Z,100317.22
2022-09-03T11:25:32.397Z,100305.97
2022-09-03T11:28:45.712Z,100317.75
2022-09-03T11:32:01.956Z,100320.53
2022-09-03T11:35:24.701Z,100321.69
2022-09-03T11:38:32.230Z,100313.88
2022-09-03T11:41:35.998Z,100315.50
2022-09-03T11:44:48.436Z,100313.12
2022-09-03T11:47:56.622Z,100313.28
2022-09-03T11:50:59.687Z,100317.09
2022-09-03T11:54:24.991Z,100310.12
2022-09-03T11:57:30.942Z,100304.91
2022-09-03T12:00:34.906Z,100315.09
2022-09-03T12:03:44.613Z,100320.47
2022-09-03T12:07:07.573Z,100327.78
2022-09-03T12:10:29.558Z,100318.75
2022-09-03T12:13:59.139Z,100310.78
2022-09-03T12:17:33.640Z,100308.91
2022-09-03T12:20:36.688Z,100307.66
2022-09-03T12:23:48.024Z,100309.16
2022-09-03T12:26:50.828Z,100300.41
2022-09-03T12:30:00.389Z,100301.03
2022-09-03T12:33:06.417Z,100295.03
2022-09-03T12:36:10.289Z,100307.44
2022-09-03T12:40:04.866Z,100311.28
2022-09-03T12:42:48.123Z,100310.09
2022-09-03T12:46:10.532Z,100309.25
2022-09-03T12:49:30.944Z,100312.28
2022-09-03T12:52:49.878Z,100301.69
2022-09-03T12:55:57.266Z,100311.66
2022-09-03T12:59:06.421Z,100294.59
2022-09-03T13:02:23.685Z,100296.16
2022-09-03T13:05:52.299Z,100288.69
2022-09-03T13:09:01.435Z,100284.19
2022-09-03T13:12:07.641Z,100268.53
2022-09-03T13:15:20.099Z,100277.59
2022-09-03T13:18:43.506Z,100284.56
2022-09-03T13:21:57.836Z,100278.47
2022-09-03T13:25:14.999Z,100273.78
2022-09-03T13:28:59.746Z,100276.34
2022-09-03T13:32:29.068Z,100272.78
2022-09-03T13:35:50.075Z,100265.25
2022-09-03T13:39:06.308Z,100264.88
2022-09-03T13:42:31.396Z,100270.78
2022-09-03T13:45:46.906Z,100262.50
2022-09-03T13:49:16.285Z,100258.00
2022-09-03T13:52:28.676Z,100256.19
2022-09-03T13:55:31.546Z,100251.59
2022-09-03T13:58:56.864Z,100257.13
2022-09-03T14:02:15.145Z,100254.50
2022-09-03T14:05:32.506Z,100254.19
2022-09-03T14:08:59.048Z,100249.53
2022-09-03T14:12:16.449Z,100246.91
2022-09-03T14:15:29.635Z,100254.19
2022-09-03T14:18:44.693Z,100242.09
2022-09-03T14:22:04.778Z,100246.63
2022-09-03T14:25:27.652Z,100238.81
2022-09-03T14:28:40.534Z,100250.84
2022-09-03T14:32:05.202Z,100243.03
2022-09-03T14:35:36.114Z,100238.16
2022-09-03T14:39:27.726Z,100245.50
2022-09-03T14:42:36.466Z,100239.94
2022-09-03T14:46:05.960Z,100233.03
2022-09-03T14:49:22.552Z,100232.94
2022-09-03T14:52:53.489Z,100234.84
2022-09-03T14:56:26.987Z,100234.13
2022-09-03T14:59:56.609Z,100246.63
2022-09-03T15:03:16.081Z,100238.81
2022-09-03T15:06:31.012Z,100249.22
2022-09-03T15:10:02.628Z,100251.38
2022-09-03T15:13:36.997Z,100248.31
2022-09-03T15:16:54.051Z,100242.59
2022-09-03T15:20:03.407Z,100241.03
2022-09-03T15:23:40.437Z,100240.34
2022-09-03T15:26:47.878Z,100245.44
2022-09-03T15:30:14.044Z,100240.72
2022-09-03T15:33:40.585Z,100234.91
2022-09-03T15:36:49.326Z,100238.94
2022-09-03T15:40:05.269Z,100235.62
2022-09-03T15:43:09.562Z,100232.44
2022-09-03T15:46:47.573Z,100223.94
2022-09-03T15:50:10.635Z,100225.66
2022-09-03T15:53:36.984Z,100225.34
2022-09-03T15:56:53.324Z,100226.69
2022-09-03T16:00:16.938Z,100222.22
2022-09-03T16:03:56.179Z,100235.38
2022-09-03T16:07:02.143Z,100234.84
2022-09-03T16:10:26.341Z,100237.16
2022-09-03T16:13:45.260Z,100235.50
2022-09-03T16:17:09.436Z,100239.19
2022-09-03T16:20:21.932Z,100241.94
2022-09-03T16:23:49.469Z,100237.72
2022-09-03T16:27:30.861Z,100242.72
2022-09-03T16:30:39.655Z,100238.81
2022-09-03T16:33:55.214Z,100249.69
2022-09-03T16:37:20.133Z,100256.63
2022-09-03T16:41:01.034Z,100267.16
2022-09-03T16:44:20.849Z,100262.62
2022-09-03T16:47:45.376Z,100255.69
2022-09-03T16:51:26.924Z,100255.69
2022-09-03T16:54:57.199Z,100259.97
2022-09-03T16:58:19.171Z,100250.81
2022-09-03T17:01:41.080Z,100269.84
2022-09-03T17:04:48.006Z,100268.56
2022-09-03T17:08:06.262Z,100276.97
2022-09-03T17:11:46.814Z,100260.44
2022-09-03T17:14:55.876Z,100261.72
2022-09-03T17:18:17.007Z,100267.81
2022-09-03T17:21:34.821Z,100273.22
2022-09-03T17:24:54.913Z,100274.47
2022-09-03T17:28:09.897Z,100278.69
2022-09-03T17:31:51.870Z,100272.59
2022-09-03T17:35:13.149Z,100279.78
2022-09-03T17:38:45.211Z,100283.75
2022-09-03T17:42:05.268Z,100284.63
2022-09-03T17:45:24.678Z,100287.09
2022-09-03T17:48:55.060Z,100300.28
2022-09-03T17:52:35.636Z,100296.03
2022-09-03T17:55:42.991Z,100296.12
2022-09-03T17:58:54.614Z,100302.91
2022-09-03T18:02:27.512Z,100300.09
2022-09-03T18:05:46.119Z,100317.03
2022-09-03T18:09:01.156Z,100320.00
2022-09-03T18:12:18.995Z,100327.03
2022-09-03T18:15:28.266Z,100331.84
2022-09-03T18:18:37.491Z,100330.03
2022-09-03T18:21:58.921Z,100335.91
2022-09-03T18:25:21.641Z,100339.06
2022-09-03T18:29:09.315Z,100346.34
2022-09-03T18:32:31.431Z,100353.78
2022-09-03T18:35:53.893Z,100359.13
2022-09-03T18:39:43.422Z,100358.59
2022-09-03T18:43:42.639Z,100366.91
2022-09-03T18:48:01.476Z,100358.00
2022-09-03T18:51:18.764Z,100357.56
2022-09-03T18:55:06.892Z,100354.56
2022-09-03T18:58:57.054Z,100356.59
2022-09-03T19:02:33.090Z,100355.25
2022-09-03T19:06:00.999Z,100354.53
2022-09-03T19:09:27.955Z,100348.31
2022-09-03T19:13:14.443Z,100352.53
2022-09-03T19:16:51.922Z,100359.53
2022-09-03T19:20:38.937Z,100359.06
2022-09-03T19:24:01.662Z,100351.78
2022-09-03T19:27:59.828Z,100356.13
2022-09-03T19:31:50.712Z,100363.09
2022-09-03T19:35:23.234Z,100362.19
2022-09-03T19:38:56.236Z,100360.09
2022-09-03T19:42:37.133Z,100362.41
2022-09-03T19:46:17.824Z,100369.25
2022-09-03T19:49:51.878Z,100365.47
2022-09-03T19:53:20.492Z,100365.87
2022-09-03T19:56:47.483Z,100369.16
2022-09-03T20:00:10.835Z,100364.78
2022-09-03T20:03:33.796Z,100367.41
2022-09-03T20:06:57.129Z,100369.16
2022-09-03T20:10:23.018Z,100364.34
2022-09-03T20:13:26.366Z,100376.44
2022-09-03T20:16:51.131Z,100376.56
2022-09-03T20:19:54.309Z,100385.06
2022-09-03T20:23:03.470Z,100381.59
2022-09-03T20:26:20.032Z,100390.78
2022-09-03T20:29:48.247Z,100389.47
2022-09-03T20:33:11.090Z,100394.25
2022-09-03T20:36:32.645Z,100399.09
2022-09-03T20:39:59.310Z,100394.34
2022-09-03T20:43:35.603Z,100397.22
2022-09-03T20:47:14.161Z,100403.19
2022-09-03T20:50:19.524Z,100405.25
2022-09-03T20:54:00.077Z,100408.97
2022-09-03T20:57:09.988Z,100406.56
2022-09-03T21:00:15.811Z,100412.56
2022-09-03T21:03:40.848Z,100419.38
2022-09-03T21:07:10.043Z,100422.53
2022-09-03T21:10:32.097Z,100418.97
2022-09-03T21:13:55.857Z,100425.00
2022-09-03T21:17:09.358Z,100424.19
2022-09-03T21:20:41.009Z,100423.00
2022-09-03T21:23:48.178Z,100424.63
2022-09-03T21:27:02.113Z,100425.81
2022-09-03T21:30:17.675Z,100434.13
2022-09-03T21:33:27.154Z,100446.19
2022-09-03T21:36:34.075Z,100436.19
2022-09-03T21:39:57.404Z,100444.56
2022-09-03T21:43:31.683Z,100437.72
2022-09-03T21:47:06.361Z,100436.91
2022-09-03T21:50:17.508Z,100427.66
2022-09-03T21:53:33.419Z,100436.59
2022-09-03T21:56:58.543Z,100443.41
2022-09-03T22:00:19.524Z,100434.13
2022-09-03T22:03:22.666Z,100434.50
2022-09-03T22:07:03.740Z,100438.16
2022-09-03T22:10:21.361Z,100439.28
2022-09-03T22:13:31.186Z,100445.66
2022-09-03T22:16:46.605Z,100444.06
2022-09-03T22:19:49.492Z,100437.97
2022-09-03T22:23:01.896Z,100443.59
2022-09-03T22:26:20.405Z,100443.59
2022-09-03T22:29:29.227Z,100434.22
2022-09-03T22:32:45.813Z,100436.91
2022-09-03T22:35:56.329Z,100434.97
2022-09-03T22:39:21.960Z,100440.47
2022-09-03T22:42:51.311Z,100438.44
2022-09-03T22:46:00.281Z,100441.47
2022-09-03T22:49:25.515Z,100438.94
2022-09-03T22:52:42.076Z,100440.13
2022-09-03T22:56:10.148Z,100436.06
2022-09-03T22:59:30.205Z,100443.28
2022-09-03T23:02:34.501Z,100439.12
2022-09-03T23:05:45.689Z,100438.28
2022-09-03T23:08:57.237Z,100431.09
2022-09-03T23:12:11.316Z,100442.34
2022-09-03T23:15:30.477Z,100439.50
2022-09-03T23:18:36.328Z,100443.41
2022-09-03T23:21:47.418Z,100442.97
2022-09-03T23:24:58.438Z,100442.16
2022-09-03T23:28:03.686Z,100440.56
2022-09-03T23:31:27.341Z,100442.81
2022-09-03T23:34:30.322Z,100447.72
2022-09-03T23:38:03.971Z,100447.66
2022-09-03T23:41:25.875Z,100449.66
2022-09-03T23:44:28.507Z,100445.69
2022-09-03T23:47:45.762Z,100446.06
2022-09-03T23:51:19.634Z,100443.59
2022-09-03T23:54:28.282Z,100443.59
2022-09-03T23:57:48.178Z,100453.34
